createdAt,value
2023-03-29T00:00:16.782Z,159817.41
2023-03-29T00:03:21.687Z,159823.91
2023-03-29T00:06:31.230Z,159799.09
2023-03-29T00:09:35.817Z,159797.81
2023-03-29T00:12:41.581Z,159756.09
2023-03-29T00:15:46.671Z,159774.34
2023-03-29T00:18:50.651Z,159795.19
2023-03-29T00:21:54.584Z,159804.34
2023-03-29T00:24:58.459Z,159773.06
2023-03-29T00:28:02.336Z,159787.34
2023-03-29T00:31:10.634Z,159787.34
2023-03-29T00:34:14.344Z,159766.50
2023-03-29T00:37:19.081Z,159779.53
2023-03-29T00:40:23.014Z,159804.34
2023-03-29T00:43:26.775Z,159817.41
2023-03-29T00:46:31.574Z,159799.09
2023-03-29T00:49:35.913Z,159780.84
2023-03-29T00:52:41.281Z,159762.59
2023-03-29T00:55:55.721Z,159756.09
2023-03-29T00:59:05.113Z,159756.09
2023-03-29T01:02:09.324Z,159769.09
2023-03-29T01:05:15.346Z,159778.25
2023-03-29T01:08:31.717Z,159788.69
2023-03-29T01:11:38.917Z,159783.44
2023-03-29T01:14:45.941Z,159778.25
2023-03-29T01:17:53.814Z,159805.66
2023-03-29T01:21:07.086Z,159791.28
2023-03-29T01:24:24.768Z,159786.03
2023-03-29T01:27:31.812Z,159792.59
2023-03-29T01:30:46.580Z,159777.00
2023-03-29T01:33:56.330Z,159762.59
2023-03-29T01:37:00.362Z,159743.03
2023-03-29T01:40:06.114Z,159753.44
2023-03-29T01:43:30.401Z,159771.75
2023-03-29T01:46:45.563Z,159757.38
2023-03-29T01:49:55.375Z,159774.34
2023-03-29T01:53:03.584Z,159783.44
2023-03-29T01:56:11.800Z,159771.75
2023-03-29T01:59:18.414Z,159749.53
2023-03-29T02:02:24.224Z,159739.13
2023-03-29T02:05:30.611Z,159743.03
2023-03-29T02:08:34.856Z,159728.69
2023-03-29T02:11:40.414Z,159713.03
2023-03-29T02:14:45.141Z,159722.19
2023-03-29T02:17:50.898Z,159723.47
2023-03-29T02:20:55.802Z,159739.13
2023-03-29T02:24:02.124Z,159730.03
2023-03-29T02:27:06.513Z,159745.63
2023-03-29T02:30:12.069Z,159791.28
2023-03-29T02:33:22.097Z,159784.75
2023-03-29T02:36:29.420Z,159774.34
2023-03-29T02:39:34.745Z,159779.53
2023-03-29T02:42:39.755Z,159783.44
2023-03-29T02:45:44.231Z,159769.09
2023-03-29T02:48:49.577Z,159795.19
2023-03-29T02:51:56.219Z,159784.75
2023-03-29T02:55:03.076Z,159795.19
2023-03-29T02:58:10.271Z,159786.03
2023-03-29T03:01:15.138Z,159793.88
2023-03-29T03:04:20.883Z,159816.06
2023-03-29T03:07:28.700Z,159805.66
2023-03-29T03:10:33.745Z,159813.50
2023-03-29T03:13:37.882Z,159805.66
2023-03-29T03:16:42.134Z,159803.00
2023-03-29T03:19:45.989Z,159818.66
2023-03-29T03:22:49.898Z,159805.66
2023-03-29T03:25:53.932Z,159793.88
2023-03-29T03:28:57.514Z,159821.31
2023-03-29T03:32:02.160Z,159809.56
2023-03-29T03:35:07.560Z,159806.94
2023-03-29T03:38:12.373Z,159816.06
2023-03-29T03:41:16.109Z,159805.66
2023-03-29T03:44:19.935Z,159813.50
2023-03-29T03:47:24.698Z,159789.94
2023-03-29T03:50:28.849Z,159818.66
2023-03-29T03:53:33.785Z,159834.31
2023-03-29T03:56:37.864Z,159844.75
2023-03-29T03:59:42.047Z,159847.41
2023-03-29T04:02:47.163Z,159848.66
2023-03-29T04:05:51.730Z,159857.81
2023-03-29T04:08:55.984Z,159852.59
2023-03-29T04:12:00.590Z,159863.06
2023-03-29T04:15:05.103Z,159839.50
2023-03-29T04:18:09.061Z,159877.34
2023-03-29T04:21:13.416Z,159852.59
2023-03-29T04:24:17.597Z,159883.91
2023-03-29T04:27:21.566Z,159903.47
2023-03-29T04:30:25.356Z,159896.97
2023-03-29T04:33:29.451Z,159896.97
2023-03-29T04:36:33.588Z,159898.25
2023-03-29T04:39:38.002Z,159904.81
2023-03-29T04:42:44.670Z,159899.56
2023-03-29T04:45:48.406Z,159906.06
2023-03-29T04:48:52.407Z,159903.47
2023-03-29T04:51:57.115Z,159913.91
2023-03-29T04:55:01.622Z,159913.91
2023-03-29T04:58:05.823Z,159943.91
2023-03-29T05:01:09.882Z,159949.16
2023-03-29T05:04:14.258Z,159983.06
2023-03-29T05:07:19.159Z,159970.00
2023-03-29T05:10:23.580Z,159977.84
2023-03-29T05:13:27.540Z,159980.44
2023-03-29T05:16:31.809Z,159975.25
2023-03-29T05:19:36.495Z,159985.66
2023-03-29T05:22:40.815Z,159990.91
2023-03-29T05:25:44.966Z,160049.59
2023-03-29T05:28:52.307Z,160048.28
2023-03-29T05:31:56.441Z,160053.53
2023-03-29T05:35:00.501Z,160062.63
2023-03-29T05:38:04.852Z,160069.19
2023-03-29T05:41:10.782Z,160071.78
2023-03-29T05:44:14.933Z,160088.72
2023-03-29T05:47:18.665Z,160103.13
2023-03-29T05:50:22.381Z,160083.50
2023-03-29T05:53:27.563Z,160084.81
2023-03-29T05:56:31.770Z,160086.13
2023-03-29T05:59:35.874Z,160074.44
2023-03-29T06:02:39.984Z,160066.59
2023-03-29T06:05:44.245Z,160090.06
2023-03-29T06:08:48.132Z,160101.81
2023-03-29T06:11:52.271Z,160109.63
2023-03-29T06:14:58.348Z,160103.13
2023-03-29T06:18:02.448Z,160212.75
2023-03-29T06:21:07.923Z,160174.88
2023-03-29T06:24:11.918Z,160174.88
2023-03-29T06:27:15.850Z,160178.78
2023-03-29T06:30:19.740Z,160152.75
2023-03-29T06:33:25.169Z,160144.91
2023-03-29T06:36:29.403Z,160189.28
2023-03-29T06:39:33.689Z,160185.38
2023-03-29T06:42:37.830Z,160181.44
2023-03-29T06:45:41.811Z,160194.47
2023-03-29T06:48:46.068Z,160186.69
2023-03-29T06:51:49.722Z,160227.16
2023-03-29T06:54:53.936Z,160259.78
2023-03-29T06:57:59.659Z,160263.69
2023-03-29T07:01:05.536Z,160314.59
2023-03-29T07:04:09.957Z,160317.19
2023-03-29T07:07:20.146Z,160327.63
2023-03-29T07:10:28.443Z,160353.75
2023-03-29T07:13:33.089Z,160356.41
2023-03-29T07:16:37.684Z,160391.63
2023-03-29T07:19:41.761Z,160362.94
2023-03-29T07:22:47.422Z,160390.31
2023-03-29T07:25:51.478Z,160398.13
2023-03-29T07:28:56.282Z,160419.03
2023-03-29T07:32:00.212Z,160446.50
2023-03-29T07:35:07.922Z,160492.19
2023-03-29T07:38:11.964Z,160492.19
2023-03-29T07:41:15.984Z,160527.44
2023-03-29T07:44:21.612Z,160506.53
2023-03-29T07:47:26.386Z,160510.47
2023-03-29T07:50:32.569Z,160523.50
2023-03-29T07:53:37.176Z,160515.72
2023-03-29T07:56:41.639Z,160543.13
2023-03-29T07:59:45.993Z,160564.00
2023-03-29T08:02:52.261Z,160553.56
2023-03-29T08:05:56.822Z,160567.94
2023-03-29T08:09:01.563Z,160569.25
2023-03-29T08:12:05.566Z,160574.50
2023-03-29T08:15:10.043Z,160587.53
2023-03-29T08:18:14.688Z,160622.81
2023-03-29T08:21:18.871Z,160673.75
2023-03-29T08:24:22.730Z,160694.66
2023-03-29T08:27:26.623Z,160694.66
2023-03-29T08:30:30.540Z,160722.09
2023-03-29T08:33:34.622Z,160733.84
2023-03-29T08:36:38.875Z,160805.72
2023-03-29T08:39:43.293Z,160881.56
2023-03-29T08:43:26.074Z,160928.56
2023-03-29T08:46:36.438Z,160960.00
2023-03-29T08:49:42.616Z,161013.59
2023-03-29T08:52:50.589Z,161025.34
2023-03-29T08:55:57.094Z,161017.53
2023-03-29T08:59:01.279Z,161014.94
2023-03-29T09:02:10.088Z,160986.09
2023-03-29T09:05:27.231Z,160980.91
2023-03-29T09:08:31.026Z,160954.75
2023-03-29T09:11:53.853Z,160924.69
2023-03-29T09:15:00.982Z,160901.13
2023-03-29T09:18:16.540Z,160909.00
2023-03-29T09:21:26.769Z,160918.16
2023-03-29T09:24:36.744Z,160950.81
2023-03-29T09:27:56.653Z,160987.44
2023-03-29T09:31:06.609Z,161013.59
2023-03-29T09:34:15.865Z,161001.81
2023-03-29T09:37:28.809Z,161046.25
2023-03-29T09:40:38.189Z,161119.47
2023-03-29T09:43:42.827Z,161171.81
2023-03-29T09:46:52.579Z,161225.47
2023-03-29T09:49:59.281Z,161213.66
2023-03-29T09:53:03.656Z,161245.06
2023-03-29T09:56:08.731Z,161322.19
2023-03-29T09:59:12.916Z,161373.25
2023-03-29T10:02:18.746Z,161424.28
2023-03-29T10:05:24.418Z,161475.34
2023-03-29T10:08:37.858Z,161500.16
2023-03-29T10:11:43.244Z,161530.25
2023-03-29T10:14:53.934Z,161568.22
2023-03-29T10:18:03.644Z,161644.13
2023-03-29T10:21:11.510Z,161718.75
2023-03-29T10:24:20.320Z,161720.09
2023-03-29T10:27:26.097Z,161725.28
2023-03-29T10:30:31.518Z,161759.34
2023-03-29T10:33:36.931Z,161798.66
2023-03-29T10:36:42.206Z,161771.09
2023-03-29T10:39:47.654Z,161734.44
2023-03-29T10:42:53.900Z,161760.66
2023-03-29T10:46:05.849Z,161777.69
2023-03-29T10:49:18.004Z,161826.09
2023-03-29T10:52:23.009Z,161819.56
2023-03-29T10:55:32.341Z,161854.88
2023-03-29T10:58:37.741Z,161788.13
2023-03-29T11:01:42.112Z,161822.16
2023-03-29T11:04:56.716Z,161836.53
2023-03-29T11:08:01.159Z,161837.84
2023-03-29T11:11:26.403Z,161773.75
2023-03-29T11:14:48.936Z,161697.78
2023-03-29T11:17:53.128Z,161705.66
2023-03-29T11:20:59.095Z,161700.41
2023-03-29T11:24:25.753Z,161663.75
2023-03-29T11:27:33.766Z,161662.44
2023-03-29T11:30:43.909Z,161676.84
2023-03-29T11:34:06.799Z,161730.50
2023-03-29T11:37:14.451Z,161773.75
2023-03-29T11:40:29.840Z,161816.91
2023-03-29T11:43:33.696Z,161940.00
2023-03-29T11:46:37.889Z,162040.88
2023-03-29T11:50:06.578Z,162050.03
2023-03-29T11:53:16.989Z,162097.19
2023-03-29T11:56:31.740Z,162101.13
2023-03-29T11:59:41.990Z,162051.34
2023-03-29T12:02:58.057Z,162012.03
2023-03-29T12:06:04.493Z,161951.84
2023-03-29T12:09:24.256Z,161950.50
2023-03-29T12:12:28.177Z,161949.16
2023-03-29T12:15:43.727Z,161991.09
2023-03-29T12:18:49.488Z,161975.34
2023-03-29T12:21:54.648Z,161988.50
2023-03-29T12:24:59.809Z,162012.03
2023-03-29T12:28:03.901Z,162014.69
2023-03-29T12:31:12.838Z,162002.88
2023-03-29T12:34:52.516Z,162001.59
2023-03-29T12:38:09.878Z,161970.13
2023-03-29T12:41:16.920Z,161960.94
2023-03-29T12:44:22.710Z,161954.44
2023-03-29T12:47:31.600Z,161992.38
2023-03-29T12:50:37.832Z,162059.19
2023-03-29T12:53:52.753Z,162107.69
2023-03-29T12:57:00.364Z,162187.59
2023-03-29T13:00:24.626Z,162232.13
2023-03-29T13:03:46.611Z,162230.81
2023-03-29T13:07:02.673Z,162185.00
2023-03-29T13:10:11.022Z,162154.84
2023-03-29T13:13:17.667Z,162112.91
2023-03-29T13:16:29.069Z,162063.13
2023-03-29T13:19:33.338Z,162071.00
2023-03-29T13:22:37.796Z,162122.09
2023-03-29T13:25:55.820Z,162128.63
2023-03-29T13:29:18.779Z,162158.75
2023-03-29T13:32:27.861Z,162141.72
2023-03-29T13:35:42.374Z,162118.19
2023-03-29T13:38:48.787Z,162143.03
2023-03-29T13:41:54.177Z,162181.00
2023-03-29T13:45:10.670Z,162191.50
2023-03-29T13:48:25.024Z,162182.34
2023-03-29T13:51:39.298Z,162192.81
2023-03-29T13:54:46.626Z,162196.75
2023-03-29T13:57:59.839Z,162200.72
2023-03-29T14:01:24.788Z,162229.53
2023-03-29T14:04:37.781Z,162242.63
2023-03-29T14:07:44.047Z,162237.34
2023-03-29T14:10:48.280Z,162237.34
2023-03-29T14:13:59.430Z,162272.72
2023-03-29T14:17:04.052Z,162297.66
2023-03-29T14:20:10.934Z,162301.53
2023-03-29T14:23:20.423Z,162305.53
2023-03-29T14:26:24.839Z,162293.69
2023-03-29T14:29:32.335Z,162281.94
2023-03-29T14:32:39.161Z,162270.09
2023-03-29T14:35:43.807Z,162230.81
2023-03-29T14:38:57.979Z,162232.13
2023-03-29T14:42:02.163Z,162241.28
2023-03-29T14:45:06.312Z,162264.88
2023-03-29T14:48:12.192Z,162284.53
2023-03-29T14:51:16.538Z,162245.22
2023-03-29T14:54:22.331Z,162263.59
2023-03-29T14:57:28.407Z,162251.78
2023-03-29T15:00:41.455Z,162242.63
2023-03-29T15:03:55.247Z,162224.25
2023-03-29T15:06:59.658Z,162233.47
2023-03-29T15:10:05.619Z,162228.19
2023-03-29T15:13:16.319Z,162251.78
2023-03-29T15:16:21.062Z,162275.38
2023-03-29T15:19:25.747Z,162300.25
2023-03-29T15:22:31.649Z,162331.69
2023-03-29T15:25:47.666Z,162357.94
2023-03-29T15:28:57.523Z,162371.06
2023-03-29T15:32:02.166Z,162355.31
2023-03-29T15:35:09.263Z,162375.00
2023-03-29T15:38:13.561Z,162352.66
2023-03-29T15:41:17.760Z,162329.13
2023-03-29T15:44:34.142Z,162296.38
2023-03-29T15:47:38.003Z,162285.81
2023-03-29T15:50:43.318Z,162266.22
2023-03-29T15:53:47.112Z,162255.72
2023-03-29T15:56:52.936Z,162225.56
2023-03-29T15:59:56.993Z,162202.00
2023-03-29T16:03:01.305Z,162153.53
2023-03-29T16:06:06.457Z,162143.03
2023-03-29T16:09:11.877Z,162116.84
2023-03-29T16:12:16.312Z,162064.47
2023-03-29T16:15:22.003Z,162035.59
2023-03-29T16:18:26.182Z,162015.97
2023-03-29T16:21:30.305Z,161998.94
2023-03-29T16:24:35.041Z,161951.84
2023-03-29T16:27:38.979Z,161937.41
2023-03-29T16:30:42.620Z,161892.88
2023-03-29T16:33:46.636Z,161873.22
2023-03-29T16:36:51.195Z,161854.88
2023-03-29T16:39:56.765Z,161832.63
2023-03-29T16:43:00.906Z,161823.47
2023-03-29T16:46:06.783Z,161819.56
2023-03-29T16:49:18.117Z,161811.69
2023-03-29T16:52:23.155Z,161797.31
2023-03-29T16:55:28.400Z,161794.69
2023-03-29T16:58:32.624Z,161790.72
2023-03-29T17:01:37.115Z,161781.56
2023-03-29T17:04:41.849Z,161776.34
2023-03-29T17:07:46.802Z,161771.09
2023-03-29T17:10:55.474Z,161758.00
2023-03-29T17:14:00.130Z,161752.78
2023-03-29T17:17:04.560Z,161748.84
2023-03-29T17:20:12.252Z,161740.97
2023-03-29T17:23:16.012Z,161730.50
2023-03-29T17:26:20.029Z,161727.91
2023-03-29T17:29:23.936Z,161722.69
2023-03-29T17:32:27.569Z,161714.81
2023-03-29T17:35:31.743Z,161708.22
2023-03-29T17:38:35.891Z,161696.47
2023-03-29T17:41:40.200Z,161683.38
2023-03-29T17:44:44.449Z,161676.84
2023-03-29T17:47:48.233Z,161671.56
2023-03-29T17:50:54.789Z,161658.50
2023-03-29T17:53:59.010Z,161648.06
2023-03-29T17:57:03.099Z,161640.19
2023-03-29T18:00:08.240Z,161642.81
2023-03-29T18:03:12.509Z,161640.19
2023-03-29T18:06:19.368Z,161650.69
2023-03-29T18:09:23.409Z,161653.28
2023-03-29T18:12:28.428Z,161661.16
2023-03-29T18:15:32.420Z,161657.22
2023-03-29T18:18:36.877Z,161666.38
2023-03-29T18:21:41.002Z,161640.19
2023-03-29T18:24:46.429Z,161620.53
2023-03-29T18:27:50.635Z,161610.09
2023-03-29T18:30:54.861Z,161598.31
2023-03-29T18:33:58.920Z,161587.84
2023-03-29T18:37:02.991Z,161569.53
2023-03-29T18:40:10.279Z,161551.19
2023-03-29T18:43:14.182Z,161542.00
2023-03-29T18:46:18.726Z,161530.25
2023-03-29T18:49:23.188Z,161521.06
2023-03-29T18:52:27.814Z,161514.56
2023-03-29T18:55:32.094Z,161497.56
2023-03-29T18:58:36.341Z,161489.69
2023-03-29T19:01:41.137Z,161479.22
2023-03-29T19:04:45.658Z,161464.81
2023-03-29T19:07:49.949Z,161459.56
2023-03-29T19:10:59.971Z,161462.22
2023-03-29T19:14:04.773Z,161487.09
2023-03-29T19:17:08.475Z,161506.72
2023-03-29T19:20:12.588Z,161500.16
2023-03-29T19:23:17.233Z,161500.16
2023-03-29T19:26:21.700Z,161501.44
2023-03-29T19:29:26.319Z,161515.91
2023-03-29T19:32:33.113Z,161510.63
2023-03-29T19:35:37.912Z,161487.09
2023-03-29T19:38:41.888Z,161496.22
2023-03-29T19:41:45.768Z,161509.31
2023-03-29T19:44:50.003Z,161504.09
2023-03-29T19:47:55.381Z,161508.03
2023-03-29T19:51:03.325Z,161492.31
2023-03-29T19:54:07.749Z,161488.38
2023-03-29T19:57:11.893Z,161498.84
2023-03-29T20:00:16.063Z,161488.38
2023-03-29T20:03:23.208Z,161471.38
2023-03-29T20:06:27.608Z,161455.69
2023-03-29T20:09:32.488Z,161445.22
2023-03-29T20:12:36.521Z,161424.28
2023-03-29T20:15:40.719Z,161412.53
2023-03-29T20:18:45.537Z,161424.28
2023-03-29T20:21:50.766Z,161428.22
2023-03-29T20:24:54.603Z,161433.47
2023-03-29T20:27:59.553Z,161428.22
2023-03-29T20:31:05.064Z,161407.28
2023-03-29T20:34:09.334Z,161385.00
2023-03-29T20:37:14.607Z,161365.41
2023-03-29T20:40:20.832Z,161353.66
2023-03-29T20:43:24.937Z,161352.31
2023-03-29T20:46:35.044Z,161339.19
2023-03-29T20:49:39.267Z,161332.72
2023-03-29T20:52:43.120Z,161322.19
2023-03-29T20:55:47.870Z,161323.53
2023-03-29T20:58:55.630Z,161315.66
2023-03-29T21:02:00.215Z,161306.53
2023-03-29T21:05:04.842Z,161310.47
2023-03-29T21:08:09.000Z,161302.59
2023-03-29T21:11:16.263Z,161324.84
2023-03-29T21:14:22.948Z,161341.84
2023-03-29T21:17:27.081Z,161331.38
2023-03-29T21:20:32.277Z,161352.31
2023-03-29T21:23:36.588Z,161348.41
2023-03-29T21:26:41.168Z,161341.84
2023-03-29T21:29:45.653Z,161340.53
2023-03-29T21:32:49.582Z,161340.53
2023-03-29T21:35:53.901Z,161347.06
2023-03-29T21:38:57.875Z,161349.72
2023-03-29T21:42:01.872Z,161370.66
2023-03-29T21:45:06.395Z,161361.47
2023-03-29T21:48:10.474Z,161371.94
2023-03-29T21:51:14.645Z,161386.34
2023-03-29T21:54:18.910Z,161396.78
2023-03-29T21:57:23.029Z,161404.66
2023-03-29T22:00:27.537Z,161412.53
2023-03-29T22:03:31.706Z,161400.69
2023-03-29T22:06:35.646Z,161388.94
2023-03-29T22:09:42.308Z,161390.25
2023-03-29T22:12:46.273Z,161404.66
2023-03-29T22:15:58.620Z,161404.66
2023-03-29T22:19:03.405Z,161405.94
2023-03-29T22:22:13.502Z,161412.53
2023-03-29T22:25:19.251Z,161413.81
2023-03-29T22:28:23.122Z,161422.94
2023-03-29T22:31:28.042Z,161426.88
2023-03-29T22:34:31.908Z,161425.53
2023-03-29T22:37:43.295Z,161417.69
2023-03-29T22:40:47.354Z,161420.34
2023-03-29T22:43:54.652Z,161416.47
2023-03-29T22:46:58.486Z,161416.47
2023-03-29T22:50:02.385Z,161443.88
2023-03-29T22:53:06.929Z,161450.41
2023-03-29T22:56:10.819Z,161439.94
2023-03-29T22:59:15.856Z,161453.06
2023-03-29T23:02:20.016Z,161476.63
2023-03-29T23:05:24.144Z,161491.03
2023-03-29T23:08:28.719Z,161521.06
2023-03-29T23:11:32.578Z,161535.53
2023-03-29T23:14:36.671Z,161561.66
2023-03-29T23:17:40.480Z,161549.94
2023-03-29T23:20:44.704Z,161534.19
2023-03-29T23:23:49.412Z,161518.47
2023-03-29T23:26:55.200Z,161488.38
2023-03-29T23:29:59.495Z,161481.84
2023-03-29T23:33:03.598Z,161483.16
2023-03-29T23:36:08.963Z,161470.09
2023-03-29T23:39:14.244Z,161485.75
2023-03-29T23:42:18.093Z,161498.84
2023-03-29T23:45:22.072Z,161511.97
2023-03-29T23:48:26.154Z,161548.59
2023-03-29T23:51:30.381Z,161534.19
2023-03-29T23:54:34.138Z,161534.19
2023-03-29T23:57:38.092Z,161538.06
